Time;durP1;ratioP1;P1;durP2;ratioP2;P2;SDS_P1;SDS_P2;PMS_P1;PMS_P2;Temp;Humidity;BMP_temperature;BMP_pressure;BME280_temperature;BME280_humidity;BME280_pressure;Samples;Min_cycle;Max_cycle;Signal;HPM_P1;HPM_P2
2021/07/05 00:01:19;;;;;;;;;4.33;4.33;;;;;-149.00;100.00;66333.84;5102234;27;45245;-80
2021/07/05 00:03:45;;;;;;;;;4.33;4.33;;;;;-149.00;100.00;66333.84;5083605;27;46673;-80
2021/07/05 00:06:11;;;;;;;;;7.67;6.00;;;;;-149.00;100.00;66333.84;5102167;27;45310;-79
2021/07/05 00:08:36;;;;;;;;;5.33;4.00;;;;;-149.00;100.00;66333.84;5102084;27;45272;-80
2021/07/05 00:11:02;;;;;;;;;4.00;4.00;;;;;-149.00;100.00;66333.84;5102326;27;45374;-79
2021/07/05 00:13:28;;;;;;;;;5.33;4.33;;;;;-149.00;100.00;66333.84;5102058;27;46575;-79
2021/07/05 00:15:54;;;;;;;;;4.00;4.00;;;;;-149.00;100.00;66333.84;5101943;27;45284;-79
2021/07/05 00:18:20;;;;;;;;;4.67;4.67;;;;;-149.00;100.00;66333.84;5084228;27;45357;-80
2021/07/05 00:20:46;;;;;;;;;3.33;3.33;;;;;-149.00;100.00;66333.84;5101490;27;45398;-79
2021/07/05 00:23:13;;;;;;;;;4.67;4.67;;;;;-149.00;100.00;66333.84;5101986;27;45374;-79
2021/07/05 00:25:39;;;;;;;;;6.00;5.67;;;;;-149.00;100.00;66333.84;5101910;27;45484;-79
2021/07/05 00:28:05;;;;;;;;;5.67;5.00;;;;;-149.00;100.00;66333.84;5101967;27;45241;-79
2021/07/05 00:30:31;;;;;;;;;4.00;4.00;;;;;-149.00;100.00;66333.84;5101295;27;45178;-79
2021/07/05 00:32:57;;;;;;;;;7.00;6.33;;;;;-149.00;100.00;66333.84;5101523;27;46300;-79
2021/07/05 00:35:25;;;;;;;;;4.00;4.00;;;;;-149.00;100.00;66333.84;5101689;27;45871;-79
2021/07/05 00:37:53;;;;;;;;;3.33;3.33;;;;;-149.00;100.00;66333.84;5083173;27;45287;-79
2021/07/05 00:40:19;;;;;;;;;6.67;6.33;;;;;-149.00;100.00;66333.84;5101520;27;45362;-79
2021/07/05 00:42:45;;;;;;;;;4.00;4.00;;;;;-149.00;100.00;66333.84;5083141;27;45271;-79
2021/07/05 00:45:11;;;;;;;;;3.00;3.00;;;;;-149.00;100.00;66333.84;5100506;27;45278;-79
2021/07/05 00:47:37;;;;;;;;;4.33;4.33;;;;;-149.00;100.00;66333.84;5083114;27;45317;-79
2021/07/05 00:50:05;;;;;;;;;5.00;5.00;;;;;-149.00;100.00;66333.84;5101527;27;45288;-79
2021/07/05 00:52:33;;;;;;;;;4.00;4.00;;;;;-149.00;100.00;66333.84;5101065;27;46344;-78
2021/07/05 00:54:58;;;;;;;;;4.33;4.33;;;;;-149.00;100.00;66333.84;5101383;27;45340;-78
2021/07/05 00:57:25;;;;;;;;;5.67;5.00;;;;;-149.00;100.00;66333.84;5101417;27;45257;-78
2021/07/05 00:59:54;;;;;;;;;5.00;5.00;;;;;-149.00;100.00;66333.84;5101139;27;45542;-78
2021/07/05 01:02:22;;;;;;;;;5.33;5.33;;;;;-149.00;100.00;66333.84;5082587;27;47393;-78
2021/07/05 01:04:49;;;;;;;;;4.00;4.00;;;;;-149.00;100.00;66333.84;5101163;27;45307;-78
2021/07/05 01:07:14;;;;;;;;;4.67;4.67;;;;;-149.00;100.00;66333.84;5082449;27;45263;-78
2021/07/05 01:09:40;;;;;;;;;4.67;4.67;;;;;-149.00;100.00;66333.84;5101168;27;45472;-78
2021/07/05 01:12:06;;;;;;;;;5.33;5.33;;;;;-149.00;100.00;66333.84;5082917;27;46249;-78
2021/07/05 01:14:32;;;;;;;;;4.00;4.00;;;;;-149.00;100.00;66333.84;5100894;27;45251;-78
2021/07/05 01:16:57;;;;;;;;;4.00;4.00;;;;;-149.00;100.00;66333.84;5101102;27;45209;-78
2021/07/05 01:19:24;;;;;;;;;5.00;5.00;;;;;-149.00;100.00;66333.84;5100860;27;45646;-78
2021/07/05 01:21:49;;;;;;;;;5.00;4.67;;;;;-149.00;100.00;66333.84;5100788;27;45997;-78
2021/07/05 01:24:15;;;;;;;;;3.33;3.33;;;;;-149.00;100.00;66333.84;5082321;27;45351;-78
2021/07/05 01:26:41;;;;;;;;;5.00;5.00;;;;;-149.00;100.00;66333.84;5082752;27;45467;-78
2021/07/05 01:29:06;;;;;;;;;4.67;4.67;;;;;-149.00;100.00;66333.84;5100513;27;45384;-78
2021/07/05 01:31:34;;;;;;;;;4.00;4.00;;;;;-149.00;100.00;66333.84;5100228;27;45309;-78
2021/07/05 01:33:59;;;;;;;;;3.33;3.33;;;;;-149.00;100.00;66333.84;5100745;27;45310;-78
2021/07/05 01:36:25;;;;;;;;;4.67;4.00;;;;;-149.00;100.00;66333.84;5082319;27;45756;-78
2021/07/05 01:38:51;;;;;;;;;3.67;3.67;;;;;-149.00;100.00;66333.84;5100672;27;45465;-78
2021/07/05 01:41:18;;;;;;;;;4.00;4.00;;;;;-149.00;100.00;66333.84;5100625;27;46136;-79
2021/07/05 01:43:43;;;;;;;;;4.67;4.67;;;;;-149.00;100.00;66333.84;5098273;27;45405;-78
2021/07/05 01:46:09;;;;;;;;;5.67;5.67;;;;;-149.00;100.00;66333.84;5100804;27;45307;-78
2021/07/05 01:48:34;;;;;;;;;4.33;4.33;;;;;-149.00;100.00;66333.84;5082025;27;46640;-78
2021/07/05 01:51:00;;;;;;;;;6.00;4.00;;;;;-149.00;100.00;66333.84;5100505;27;46186;-78
2021/07/05 01:53:26;;;;;;;;;5.00;4.00;;;;;-149.00;100.00;66333.84;5100449;27;45316;-78
2021/07/05 01:55:53;;;;;;;;;4.33;4.33;;;;;-149.00;100.00;66333.84;5100571;27;45325;-78
2021/07/05 01:58:18;;;;;;;;;5.00;5.00;;;;;-149.00;100.00;66333.84;5100543;27;45530;-78
2021/07/05 02:00:46;;;;;;;;;4.67;4.00;;;;;-149.00;100.00;66333.84;5100066;27;46627;-78
2021/07/05 02:03:13;;;;;;;;;7.33;4.67;;;;;-149.00;100.00;66333.84;5081820;27;45319;-78
2021/07/05 02:05:40;;;;;;;;;4.00;4.00;;;;;-149.00;100.00;66333.84;5100370;27;45317;-78
2021/07/05 02:08:06;;;;;;;;;4.00;4.00;;;;;-149.00;100.00;66333.84;5100142;27;45504;-77
2021/07/05 02:10:34;;;;;;;;;3.00;3.00;;;;;-149.00;100.00;66333.84;5100328;27;46186;-77
2021/07/05 02:13:05;;;;;;;;;5.67;5.67;;;;;-149.00;100.00;66333.84;5100166;27;45221;-77
2021/07/05 02:15:30;;;;;;;;;4.00;4.00;;;;;-149.00;100.00;66333.84;5100242;27;45331;-77
2021/07/05 02:17:55;;;;;;;;;5.00;5.00;;;;;-149.00;100.00;66333.84;5081658;27;46104;-78
2021/07/05 02:20:24;;;;;;;;;6.67;4.33;;;;;-149.00;100.00;66333.84;5100010;27;45980;-78
2021/07/05 02:22:52;;;;;;;;;4.33;4.33;;;;;-149.00;100.00;66333.84;5081733;27;45918;-77
2021/07/05 02:25:19;;;;;;;;;3.67;3.67;;;;;-149.00;100.00;66333.84;5081750;27;45297;-78
2021/07/05 02:27:46;;;;;;;;;4.00;4.00;;;;;-149.00;100.00;66333.84;5099996;27;45311;-77
2021/07/05 02:30:15;;;;;;;;;4.00;4.00;;;;;-149.00;100.00;66333.84;5099677;27;45278;-77
2021/07/05 02:32:41;;;;;;;;;3.00;3.00;;;;;-149.00;100.00;66333.84;5099685;27;45267;-77
2021/07/05 02:35:12;;;;;;;;;5.67;3.00;;;;;-149.00;100.00;66333.84;5100176;27;45278;-77
2021/07/05 02:37:39;;;;;;;;;3.00;3.00;;;;;-149.00;100.00;66333.84;5099474;27;45266;-77
2021/07/05 02:40:07;;;;;;;;;5.00;5.00;;;;;-149.00;100.00;66333.84;5099709;27;45385;-77
2021/07/05 02:42:34;;;;;;;;;2.33;2.33;;;;;-149.00;100.00;66333.84;5099461;27;45211;-77
2021/07/05 02:45:03;;;;;;;;;4.00;3.67;;;;;-149.00;100.00;66333.84;5081301;27;45399;-77
2021/07/05 02:47:28;;;;;;;;;3.67;3.67;;;;;-149.00;100.00;66333.84;5081213;27;45793;-77
2021/07/05 02:49:54;;;;;;;;;5.00;3.00;;;;;-149.00;100.00;66333.84;5081288;27;47182;-77
2021/07/05 02:52:19;;;;;;;;;5.00;3.67;;;;;-149.00;100.00;66333.84;5099655;27;45243;-77
2021/07/05 02:54:44;;;;;;;;;5.67;4.00;;;;;-149.00;100.00;66333.84;5099987;27;45275;-77
2021/07/05 02:57:28;;;;;;;;;4.00;4.00;;;;;-149.00;100.00;66333.84;5099757;27;45509;-77
2021/07/05 02:59:56;;;;;;;;;3.67;3.67;;;;;-149.00;100.00;66333.84;5099559;27;46332;-77
2021/07/05 03:02:21;;;;;;;;;5.00;5.00;;;;;-149.00;100.00;66333.84;5099513;27;45258;-78
2021/07/05 03:04:46;;;;;;;;;8.33;5.67;;;;;-149.00;100.00;66333.84;5099667;27;45484;-78
2021/07/05 03:07:12;;;;;;;;;5.00;5.00;;;;;-149.00;100.00;66333.84;5100826;27;45225;-77
2021/07/05 03:09:37;;;;;;;;;4.00;4.00;;;;;-149.00;100.00;66333.84;5103053;27;45239;-77
2021/07/05 03:12:03;;;;;;;;;6.00;6.00;;;;;-149.00;100.00;66333.84;5103226;27;45278;-77
2021/07/05 03:14:28;;;;;;;;;3.33;3.00;;;;;-149.00;100.00;66333.84;5103110;27;45228;-77
2021/07/05 03:16:53;;;;;;;;;2.33;2.33;;;;;-149.00;100.00;66333.84;5103060;27;45210;-77
2021/07/05 03:19:19;;;;;;;;;3.67;3.67;;;;;-149.00;100.00;66333.84;5084429;27;47399;-77
2021/07/05 03:21:44;;;;;;;;;4.67;4.67;;;;;-149.00;100.00;66333.84;5102869;27;45852;-77
2021/07/05 03:24:09;;;;;;;;;4.00;4.00;;;;;-149.00;100.00;66333.84;5103191;27;45368;-78
2021/07/05 03:26:35;;;;;;;;;4.33;3.33;;;;;-149.00;100.00;66333.84;5102858;27;46176;-78
2021/07/05 03:29:00;;;;;;;;;3.00;3.00;;;;;-149.00;100.00;66333.84;5084123;27;48410;-77
2021/07/05 03:31:26;;;;;;;;;7.00;3.67;;;;;-149.00;100.00;66333.84;5083961;27;45321;-77
2021/07/05 03:33:51;;;;;;;;;5.67;4.00;;;;;-149.00;100.00;66333.84;5084102;27;45478;-77
2021/07/05 03:36:16;;;;;;;;;6.00;5.00;;;;;-149.00;100.00;66333.84;5102602;27;45328;-77
2021/07/05 03:38:42;;;;;;;;;4.00;4.00;;;;;-149.00;100.00;66333.84;5102665;27;46189;-77
2021/07/05 03:41:07;;;;;;;;;4.00;4.00;;;;;-149.00;100.00;66333.84;5102673;27;45313;-76
2021/07/05 03:43:32;;;;;;;;;2.67;2.67;;;;;-149.00;100.00;66333.84;5102672;27;45293;-76
2021/07/05 03:45:58;;;;;;;;;4.00;4.00;;;;;-149.00;100.00;66333.84;5102474;27;45309;-76
2021/07/05 03:48:23;;;;;;;;;5.67;4.33;;;;;-149.00;100.00;66333.84;5100974;27;48505;-76
2021/07/05 03:50:49;;;;;;;;;3.00;3.00;;;;;-149.00;100.00;66333.84;5084176;27;45248;-77
2021/07/05 03:53:14;;;;;;;;;5.00;4.67;;;;;-149.00;100.00;66333.84;5102436;27;45671;-77
2021/07/05 03:55:39;;;;;;;;;5.00;4.00;;;;;-149.00;100.00;66333.84;5102418;27;45476;-77
2021/07/05 03:58:06;;;;;;;;;3.33;3.00;;;;;-149.00;100.00;66333.84;5102322;27;45253;-77
2021/07/05 04:00:36;;;;;;;;;4.00;4.00;;;;;-149.00;100.00;66333.84;5083959;27;45300;-77
2021/07/05 04:03:03;;;;;;;;;6.33;6.33;;;;;-149.00;100.00;66333.84;5102336;27;45291;-76
2021/07/05 04:05:29;;;;;;;;;3.00;3.00;;;;;-149.00;100.00;66333.84;5102082;27;45225;-76
2021/07/05 04:07:55;;;;;;;;;5.00;5.00;;;;;-149.00;100.00;66333.84;5101994;27;45515;-77
2021/07/05 04:10:21;;;;;;;;;4.00;4.00;;;;;-149.00;100.00;66333.84;5083748;27;45228;-77
2021/07/05 04:12:47;;;;;;;;;4.67;4.67;;;;;-149.00;100.00;66333.84;5102284;27;45440;-77
2021/07/05 04:15:13;;;;;;;;;3.00;3.00;;;;;-149.00;100.00;66333.84;5101849;27;45477;-78
2021/07/05 04:17:39;;;;;;;;;6.00;4.00;;;;;-149.00;100.00;66333.84;5101739;27;46119;-77
2021/07/05 04:20:07;;;;;;;;;3.00;3.00;;;;;-149.00;100.00;66333.84;5100901;27;45379;-76
2021/07/05 04:22:33;;;;;;;;;4.67;4.67;;;;;-149.00;100.00;66333.84;5101964;27;45287;-77
2021/07/05 04:24:58;;;;;;;;;4.00;4.00;;;;;-149.00;100.00;66333.84;5083509;27;47421;-77
2021/07/05 04:27:24;;;;;;;;;5.00;5.00;;;;;-149.00;100.00;66333.84;5101734;27;45519;-76
2021/07/05 04:29:49;;;;;;;;;5.00;4.00;;;;;-149.00;100.00;66333.84;5101714;27;45243;-76
2021/07/05 04:32:14;;;;;;;;;4.67;4.67;;;;;-149.00;100.00;66333.84;5101852;27;45527;-77
2021/07/05 04:34:40;;;;;;;;;3.33;3.33;;;;;-149.00;100.00;66333.84;5101700;27;45445;-77
2021/07/05 04:37:05;;;;;;;;;3.67;3.67;;;;;-149.00;100.00;66333.84;5083050;27;48292;-76
2021/07/05 04:39:31;;;;;;;;;3.00;3.00;;;;;-149.00;100.00;66333.84;5101653;27;45296;-77
2021/07/05 04:41:56;;;;;;;;;3.67;3.67;;;;;-149.00;100.00;66333.84;5101842;27;45193;-77
2021/07/05 04:44:22;;;;;;;;;5.00;4.00;;;;;-149.00;100.00;66333.84;5082911;27;46121;-77
2021/07/05 04:46:49;;;;;;;;;2.67;2.67;;;;;-149.00;100.00;66333.84;5083151;27;48122;-77
2021/07/05 04:49:16;;;;;;;;;4.00;4.00;;;;;-149.00;100.00;66333.84;5101422;27;45368;-77
2021/07/05 04:51:42;;;;;;;;;2.00;2.00;;;;;-149.00;100.00;66333.84;5101404;27;45342;-76
2021/07/05 04:54:08;;;;;;;;;1.33;1.33;;;;;-149.00;100.00;66333.84;5101440;27;45231;-76
2021/07/05 04:56:34;;;;;;;;;2.00;2.00;;;;;-149.00;100.00;66333.84;5101286;27;45370;-76
2021/07/05 04:59:00;;;;;;;;;2.33;2.33;;;;;-149.00;100.00;66333.84;5082701;27;45691;-76
2021/07/05 05:01:25;;;;;;;;;2.33;2.33;;;;;-149.00;100.00;66333.84;5083128;27;45295;-76
2021/07/05 05:03:50;;;;;;;;;3.67;3.67;;;;;-149.00;100.00;66333.84;5101163;27;45268;-77
2021/07/05 05:06:16;;;;;;;;;1.00;1.00;;;;;-149.00;100.00;66333.84;5082733;27;47129;-76
2021/07/05 05:08:41;;;;;;;;;2.33;2.33;;;;;-149.00;100.00;66333.84;5101248;27;45291;-76
2021/07/05 05:11:06;;;;;;;;;2.67;2.00;;;;;-149.00;100.00;66333.84;5100757;27;45389;-76
2021/07/05 05:13:32;;;;;;;;;2.00;2.00;;;;;-149.00;100.00;66333.84;5101033;27;45460;-76
2021/07/05 05:15:57;;;;;;;;;1.00;1.00;;;;;-149.00;100.00;66333.84;5100772;27;45979;-81
2021/07/05 05:18:23;;;;;;;;;1.33;1.33;;;;;-149.00;100.00;66333.84;5101105;27;45243;-80
2021/07/05 05:20:48;;;;;;;;;2.00;1.33;;;;;-149.00;100.00;66333.84;5100729;27;45199;-79
2021/07/05 05:23:13;;;;;;;;;3.67;2.33;;;;;-149.00;100.00;66333.84;5100869;27;45318;-79
2021/07/05 05:25:39;;;;;;;;;4.33;4.33;;;;;-149.00;100.00;66333.84;5100899;27;46105;-79
2021/07/05 05:28:04;;;;;;;;;3.00;3.00;;;;;-149.00;100.00;66333.84;5100650;27;45337;-78
2021/07/05 05:30:30;;;;;;;;;1.67;1.67;;;;;-149.00;100.00;66333.84;5081505;27;45311;-75
2021/07/05 05:32:56;;;;;;;;;4.00;3.00;;;;;-149.00;100.00;66333.84;5100550;27;45303;-75
2021/07/05 05:35:23;;;;;;;;;3.00;3.00;;;;;-149.00;100.00;66333.84;5100633;27;46184;-78
2021/07/05 05:37:51;;;;;;;;;3.00;3.00;;;;;-149.00;100.00;66333.84;5100766;27;45469;-78
2021/07/05 05:40:17;;;;;;;;;2.00;2.00;;;;;-149.00;100.00;66333.84;5100754;27;45218;-77
2021/07/05 05:42:42;;;;;;;;;3.33;3.33;;;;;-149.00;100.00;66333.84;5082297;27;46830;-79
2021/07/05 05:45:08;;;;;;;;;1.00;1.00;;;;;-149.00;100.00;66333.84;5100254;27;45346;-78
2021/07/05 05:47:34;;;;;;;;;3.00;3.00;;;;;-149.00;100.00;66333.84;5082065;27;45603;-77
2021/07/05 05:49:59;;;;;;;;;4.33;3.67;;;;;-149.00;100.00;66333.84;5100613;27;45418;-75
2021/07/05 05:52:25;;;;;;;;;3.00;3.00;;;;;-149.00;100.00;66333.84;5098731;27;45528;-77
2021/07/05 05:54:50;;;;;;;;;3.67;2.00;;;;;-149.00;100.00;66333.84;5096554;27;45492;-79
2021/07/05 05:57:25;;;;;;;;;2.67;2.67;;;;;-149.00;100.00;66333.84;5097012;27;45671;-78
2021/07/05 05:59:56;;;;;;;;;3.00;3.00;;;;;-149.00;100.00;66333.84;5072129;27;45476;-78
2021/07/05 06:02:21;;;;;;;;;2.00;2.00;;;;;-149.00;100.00;66333.84;5098002;27;45502;-80
2021/07/05 06:04:46;;;;;;;;;3.00;3.00;;;;;-149.00;100.00;66333.84;5092458;27;45822;-79
2021/07/05 06:07:12;;;;;;;;;2.00;2.00;;;;;-149.00;100.00;66333.84;5081123;27;45481;-80
2021/07/05 06:09:37;;;;;;;;;2.00;2.00;;;;;-149.00;100.00;66333.84;5099611;27;45396;-80
2021/07/05 06:12:03;;;;;;;;;1.67;1.67;;;;;-149.00;100.00;66333.84;5099416;27;45366;-78
2021/07/05 06:14:28;;;;;;;;;3.00;3.00;;;;;-149.00;100.00;66333.84;5099146;27;45936;-78
2021/07/05 06:16:54;;;;;;;;;1.67;1.67;;;;;-149.00;100.00;66333.84;5099649;27;45411;-77
2021/07/05 06:19:19;;;;;;;;;4.00;3.00;;;;;-149.00;100.00;66333.84;5098645;27;45365;-78
2021/07/05 06:21:44;;;;;;;;;3.00;3.00;;;;;-149.00;100.00;66333.84;5100000;27;45447;-78
2021/07/05 06:24:10;;;;;;;;;3.00;3.00;;;;;-149.00;100.00;66333.84;5100113;27;45390;-78
2021/07/05 06:26:35;;;;;;;;;3.00;3.00;;;;;-149.00;100.00;66333.84;5099628;27;45331;-78
2021/07/05 06:29:00;;;;;;;;;3.00;3.00;;;;;-149.00;100.00;66333.84;5082281;27;46063;-80
2021/07/05 06:31:26;;;;;;;;;3.00;3.00;;;;;-149.00;100.00;66333.84;5062900;28;47116;-80
2021/07/05 06:33:51;;;;;;;;;3.00;3.00;;;;;-149.00;100.00;66333.84;5093354;27;45296;-83
2021/07/05 06:36:17;;;;;;;;;4.67;3.33;;;;;-149.00;100.00;66333.84;5099584;27;45370;-83
2021/07/05 06:38:43;;;;;;;;;2.33;2.00;;;;;-149.00;100.00;66333.84;5100268;27;45362;-86
2021/07/05 06:41:08;;;;;;;;;3.00;3.00;;;;;-149.00;100.00;66333.84;5099749;27;45371;-81
2021/07/05 06:43:34;;;;;;;;;1.00;1.00;;;;;-149.00;100.00;66333.84;5102630;27;46012;-82
2021/07/05 06:46:00;;;;;;;;;2.33;2.33;;;;;-149.00;100.00;66333.84;5102727;27;45302;-83
2021/07/05 06:48:25;;;;;;;;;2.00;2.00;;;;;-149.00;100.00;66333.84;5084947;27;45274;-83
2021/07/05 06:50:51;;;;;;;;;2.00;2.00;;;;;-149.00;100.00;66333.84;5103234;27;45516;-83
2021/07/05 06:53:16;;;;;;;;;2.33;2.33;;;;;-149.00;100.00;66333.84;5102730;27;46156;-83
2021/07/05 06:55:42;;;;;;;;;1.00;1.00;;;;;-149.00;100.00;66333.84;5084708;27;45276;-83
2021/07/05 06:58:07;;;;;;;;;2.00;2.00;;;;;-149.00;100.00;66333.84;5084595;27;45323;-85
2021/07/05 07:00:32;;;;;;;;;5.00;2.00;;;;;-149.00;100.00;66333.84;5102902;27;45298;-85
2021/07/05 07:02:59;;;;;;;;;1.00;1.00;;;;;-149.00;100.00;66333.84;5084512;27;47296;-84
2021/07/05 07:05:26;;;;;;;;;1.00;1.00;;;;;-149.00;100.00;66333.84;5103108;27;45633;-84
2021/07/05 07:07:56;;;;;;;;;3.33;1.33;;;;;-149.00;100.00;66333.84;5102978;27;45489;-85
2021/07/05 07:10:23;;;;;;;;;2.00;2.00;;;;;-149.00;100.00;66333.84;5102870;27;45530;-84
2021/07/05 07:12:50;;;;;;;;;0.33;0.33;;;;;-149.00;100.00;66333.84;5102171;27;46101;-82
2021/07/05 07:15:19;;;;;;;;;1.67;1.67;;;;;-149.00;100.00;66333.84;5084295;27;45397;-82
2021/07/05 07:20:16;;;;;;;;;1.00;1.00;;;;;-149.00;100.00;66333.84;5102692;27;45301;-84
2021/07/05 07:22:42;;;;;;;;;1.00;1.00;;;;;-149.00;100.00;66333.84;5080599;28;46685;-82
2021/07/05 07:25:10;;;;;;;;;1.33;1.00;;;;;-149.00;100.00;66333.84;5082551;28;45338;-83
2021/07/05 07:27:36;;;;;;;;;1.00;1.00;;;;;-149.00;100.00;66333.84;5081670;28;45278;-82
2021/07/05 07:30:03;;;;;;;;;2.00;2.00;;;;;-149.00;100.00;66333.84;5087931;27;45440;-83
2021/07/05 07:32:28;;;;;;;;;1.33;1.33;;;;;-149.00;100.00;66333.84;5102245;27;47413;-82
2021/07/05 07:34:54;;;;;;;;;1.00;1.00;;;;;-149.00;100.00;66333.84;5102003;27;45220;-85
2021/07/05 07:37:19;;;;;;;;;1.00;1.00;;;;;-149.00;100.00;66333.84;5102258;27;45386;-84
2021/07/05 07:39:47;;;;;;;;;2.33;2.00;;;;;-149.00;100.00;66333.84;5101847;27;45374;-84
2021/07/05 07:42:12;;;;;;;;;1.00;1.00;;;;;-149.00;100.00;66333.84;5094415;27;45750;-86
2021/07/05 07:44:38;;;;;;;;;1.00;1.00;;;;;-149.00;100.00;66333.84;5101674;27;45473;-86
2021/07/05 07:47:04;;;;;;;;;0.67;0.67;;;;;-149.00;100.00;66333.84;5103205;27;45262;-81
2021/07/05 07:49:31;;;;;;;;;3.00;1.00;;;;;-149.00;100.00;66333.84;5102099;27;45265;-77
2021/07/05 07:51:57;;;;;;;;;1.00;1.00;;;;;-149.00;100.00;66333.84;5102613;27;45248;-79
2021/07/05 07:54:26;;;;;;;;;1.00;1.00;;;;;-149.00;100.00;66333.84;5103986;27;45177;-82
2021/07/05 07:56:52;;;;;;;;;6.33;5.33;;;;;-149.00;100.00;66333.84;5083258;27;45378;-79
2021/07/05 07:59:18;;;;;;;;;2.00;2.00;;;;;-149.00;100.00;66333.84;5083371;27;46290;-80
2021/07/05 08:01:43;;;;;;;;;3.00;2.00;;;;;-149.00;100.00;66333.84;5083175;27;45298;-79
2021/07/05 08:04:09;;;;;;;;;2.00;2.00;;;;;-149.00;100.00;66333.84;5101970;27;45416;-79
2021/07/05 08:06:35;;;;;;;;;1.33;1.00;;;;;-149.00;100.00;66333.84;5102368;27;45315;-79
2021/07/05 08:09:03;;;;;;;;;2.00;2.00;;;;;-149.00;100.00;66333.84;5102086;27;45531;-80
2021/07/05 08:11:28;;;;;;;;;1.00;1.00;;;;;-149.00;100.00;66333.84;5101473;27;47123;-80
2021/07/05 08:13:53;;;;;;;;;2.00;2.00;;;;;-149.00;100.00;66333.84;5101263;27;45265;-80
2021/07/05 08:16:19;;;;;;;;;1.67;1.67;;;;;-149.00;100.00;66333.84;5101731;27;45175;-79
2021/07/05 08:18:45;;;;;;;;;9.33;8.00;;;;;-149.00;100.00;66333.84;5101998;27;45414;-82
2021/07/05 08:21:10;;;;;;;;;7.33;6.67;;;;;-149.00;100.00;66333.84;5101502;27;46487;-86
2021/07/05 08:23:35;;;;;;;;;4.00;4.00;;;;;-149.00;100.00;66333.84;5101255;27;45385;-84
2021/07/05 08:26:01;;;;;;;;;6.33;4.00;;;;;-149.00;100.00;66333.84;5101454;27;45269;-83
2021/07/05 08:28:27;;;;;;;;;5.33;3.00;;;;;-149.00;100.00;66333.84;5100920;27;45331;-82
2021/07/05 08:30:54;;;;;;;;;3.00;3.00;;;;;-149.00;100.00;66333.84;5101257;27;45380;-83
2021/07/05 08:33:21;;;;;;;;;3.67;3.67;;;;;-149.00;100.00;66333.84;5101459;27;45291;-80
2021/07/05 08:35:46;;;;;;;;;3.67;3.67;;;;;-149.00;100.00;66333.84;5083565;27;45240;-82
2021/07/05 08:38:11;;;;;;;;;2.67;2.67;;;;;-149.00;100.00;66333.84;5101054;27;45175;-83
2021/07/05 08:40:37;;;;;;;;;5.33;5.00;;;;;-149.00;100.00;66333.84;5101931;27;46135;-83
2021/07/05 08:43:03;;;;;;;;;3.00;2.00;;;;;-149.00;100.00;66333.84;5102110;27;45245;-81
2021/07/05 08:45:29;;;;;;;;;2.67;2.67;;;;;-149.00;100.00;66333.84;5101509;27;45485;-83
2021/07/05 08:47:56;;;;;;;;;2.00;2.00;;;;;-149.00;100.00;66333.84;5102490;27;45242;-81
2021/07/05 08:50:23;;;;;;;;;1.00;1.00;;;;;-149.00;100.00;66333.84;5101775;27;46328;-83
2021/07/05 08:52:49;;;;;;;;;1.00;1.00;;;;;-149.00;100.00;66333.84;5101373;27;45301;-83
2021/07/05 08:55:18;;;;;;;;;5.67;3.00;;;;;-149.00;100.00;66333.84;5102035;27;45335;-85
2021/07/05 08:57:45;;;;;;;;;2.00;2.00;;;;;-149.00;100.00;66333.84;5083227;27;46428;-84
2021/07/05 09:00:17;;;;;;;;;4.33;2.67;;;;;-149.00;100.00;66333.84;5101027;27;46102;-84
2021/07/05 09:02:43;;;;;;;;;1.00;1.00;;;;;-149.00;100.00;66333.84;5100758;27;45276;-85
2021/07/05 09:05:09;;;;;;;;;2.67;2.67;;;;;-149.00;100.00;66333.84;5100491;27;45235;-82
2021/07/05 09:08:04;;;;;;;;;1.33;1.33;;;;;-149.00;100.00;66333.84;5101317;27;45314;-82
2021/07/05 09:10:55;;;;;;;;;3.00;2.33;;;;;-149.00;100.00;66333.84;5100225;27;45468;-80
2021/07/05 09:13:23;;;;;;;;;3.33;3.00;;;;;-149.00;100.00;66333.84;5099040;27;45254;-79
2021/07/05 09:15:56;;;;;;;;;0.67;0.67;;;;;-149.00;100.00;66333.84;5101220;27;45229;-80
2021/07/05 09:18:24;;;;;;;;;0.00;0.00;;;;;-149.00;100.00;66333.84;5101136;27;45473;-81
2021/07/05 09:20:50;;;;;;;;;3.00;3.00;;;;;-149.00;100.00;66333.84;5100701;27;45619;-81
2021/07/05 09:23:15;;;;;;;;;4.00;2.00;;;;;-149.00;100.00;66333.84;5100898;27;45421;-81
2021/07/05 09:25:47;;;;;;;;;3.00;3.00;;;;;-149.00;100.00;66333.84;5101298;27;45350;-80
2021/07/05 09:28:15;;;;;;;;;2.33;2.33;;;;;-149.00;100.00;66333.84;5100782;27;45245;-81
2021/07/05 09:30:47;;;;;;;;;4.00;3.67;;;;;-149.00;100.00;66333.84;5101357;27;45386;-81
2021/07/05 09:33:20;;;;;;;;;3.00;2.33;;;;;-149.00;100.00;66333.84;5101058;27;45394;-86
2021/07/05 09:35:53;;;;;;;;;2.00;2.00;;;;;-149.00;100.00;66333.84;5103632;27;45256;-83
2021/07/05 09:38:37;;;;;;;;;4.00;3.00;;;;;-149.00;100.00;66333.84;5106237;27;45393;-85
2021/07/05 09:41:35;;;;;;;;;4.67;4.00;;;;;-149.00;100.00;66333.84;5074996;27;47059;-83
2021/07/05 09:44:03;;;;;;;;;3.00;3.00;;;;;-149.00;100.00;66333.84;5062292;27;45463;-85
2021/07/05 09:46:39;;;;;;;;;4.00;2.33;;;;;-149.00;100.00;66333.84;5099269;27;45480;-86
2021/07/05 09:49:15;;;;;;;;;5.67;5.00;;;;;-149.00;100.00;66333.84;5096478;27;47446;-87
2021/07/05 09:51:46;;;;;;;;;6.33;6.33;;;;;-149.00;100.00;66333.84;5101333;27;45421;-85
2021/07/05 09:54:16;;;;;;;;;4.67;3.67;;;;;-149.00;100.00;66333.84;5102230;27;45548;-87
2021/07/05 09:56:41;;;;;;;;;3.00;3.00;;;;;-149.00;100.00;66333.84;5084285;27;45324;-85
2021/07/05 09:59:20;;;;;;;;;6.33;6.33;;;;;-149.00;100.00;66333.84;5103044;27;45249;-86
2021/07/05 10:01:48;;;;;;;;;3.67;3.67;;;;;-149.00;100.00;66333.84;5102641;27;48333;-85
2021/07/05 10:04:23;;;;;;;;;2.00;2.00;;;;;-149.00;100.00;66333.84;5086814;27;45909;-84
2021/07/05 10:06:49;;;;;;;;;1.67;1.67;;;;;-149.00;100.00;66333.84;5104258;27;45157;-85
2021/07/05 10:09:34;;;;;;;;;3.33;2.67;;;;;-149.00;100.00;66333.84;5101912;27;45490;-82
2021/07/05 10:12:29;;;;;;;;;3.33;3.33;;;;;-149.00;100.00;66333.84;5101563;27;45536;-85
2021/07/05 10:15:01;;;;;;;;;5.00;5.00;;;;;-149.00;100.00;66333.84;5082586;27;45383;-86
2021/07/05 10:17:54;;;;;;;;;4.00;4.00;;;;;-149.00;100.00;66333.84;5104956;27;45192;-85
2021/07/05 10:20:35;;;;;;;;;4.00;4.00;;;;;-149.00;100.00;66333.84;5086050;27;46806;-82
2021/07/05 10:23:05;;;;;;;;;3.00;3.00;;;;;-149.00;100.00;66333.84;5104487;27;46248;-81
2021/07/05 10:25:34;;;;;;;;;2.00;2.00;;;;;-149.00;100.00;66333.84;5105532;27;45223;-81
2021/07/05 10:28:01;;;;;;;;;3.67;3.00;;;;;-149.00;100.00;66333.84;5105548;27;45168;-82
2021/07/05 10:30:27;;;;;;;;;1.00;1.00;;;;;-149.00;100.00;66333.84;5087670;27;47136;-81
2021/07/05 10:32:54;;;;;;;;;3.00;3.00;;;;;-149.00;100.00;66333.84;5108063;27;46277;-84
2021/07/05 10:35:24;;;;;;;;;1.00;1.00;;;;;-149.00;100.00;66333.84;5087101;27;45270;-81
2021/07/05 10:38:08;;;;;;;;;2.00;2.00;;;;;-149.00;100.00;66333.84;5105826;27;45300;-85
2021/07/05 10:40:40;;;;;;;;;2.00;2.00;;;;;-149.00;100.00;66333.84;5100842;27;45223;-84
2021/07/05 10:43:08;;;;;;;;;2.00;2.00;;;;;-149.00;100.00;66333.84;5086564;27;45432;-85
2021/07/05 10:45:42;;;;;;;;;1.67;1.67;;;;;-149.00;100.00;66333.84;5104505;27;45386;-82
2021/07/05 10:48:10;;;;;;;;;3.00;2.00;;;;;-149.00;100.00;66333.84;5107760;27;45343;-85
2021/07/05 10:50:41;;;;;;;;;1.33;1.33;;;;;-149.00;100.00;66333.84;5087267;27;46531;-81
2021/07/05 10:53:06;;;;;;;;;2.33;2.00;;;;;-149.00;100.00;66333.84;5091172;27;47625;-81
2021/07/05 10:55:44;;;;;;;;;2.67;2.67;;;;;-149.00;100.00;66333.84;5105833;27;45336;-84
2021/07/05 10:58:42;;;;;;;;;3.33;3.33;;;;;-149.00;100.00;66333.84;5096857;27;45507;-82
2021/07/05 11:01:07;;;;;;;;;1.00;1.00;;;;;-149.00;100.00;66333.84;5043550;27;46198;-86
2021/07/05 11:03:36;;;;;;;;;2.00;2.00;;;;;-149.00;100.00;66333.84;5087233;27;46930;-85
2021/07/05 11:06:02;;;;;;;;;1.33;1.33;;;;;-149.00;100.00;66333.84;5101465;27;45336;-86
2021/07/05 11:08:31;;;;;;;;;1.33;1.33;;;;;-149.00;100.00;66333.84;5099038;27;45279;-84
2021/07/05 11:11:23;;;;;;;;;1.00;1.00;;;;;-149.00;100.00;66333.84;5099172;27;45687;-81
2021/07/05 11:14:09;;;;;;;;;2.00;2.00;;;;;-149.00;100.00;66333.84;5104632;27;45248;-80